createdAt,value
2023-04-25T00:02:04.739Z,3.20
2023-04-25T00:04:34.257Z,3.60
2023-04-25T00:07:02.667Z,3.65
2023-04-25T00:09:29.579Z,3.33
2023-04-25T00:11:57.080Z,3.67
2023-04-25T00:14:24.249Z,3.55
2023-04-25T00:16:52.814Z,3.78
2023-04-25T00:19:19.652Z,3.38
2023-04-25T00:21:47.424Z,4.43
2023-04-25T00:24:14.625Z,3.17
2023-04-25T00:26:41.509Z,3.03
2023-04-25T00:29:08.454Z,3.83
2023-04-25T00:31:35.437Z,4.07
2023-04-25T00:34:02.549Z,3.78
2023-04-25T00:36:29.445Z,4.55
2023-04-25T00:38:56.883Z,3.95
2023-04-25T00:41:24.912Z,4.90
2023-04-25T00:43:53.175Z,4.05
2023-04-25T00:46:20.410Z,3.97
2023-04-25T00:48:47.282Z,3.75
2023-04-25T00:51:20.151Z,4.07
2023-04-25T00:53:49.478Z,3.97
2023-04-25T00:56:17.793Z,3.38
2023-04-25T00:58:45.143Z,3.10
2023-04-25T01:01:12.945Z,3.50
2023-04-25T01:03:44.087Z,3.75
2023-04-25T01:06:12.323Z,3.35
2023-04-25T01:08:40.649Z,4.20
2023-04-25T01:11:07.901Z,3.50
2023-04-25T01:13:36.458Z,3.72
2023-04-25T01:16:04.019Z,3.40
2023-04-25T01:18:31.128Z,3.17
2023-04-25T01:21:08.177Z,3.25
2023-04-25T01:23:35.583Z,3.65
2023-04-25T01:26:03.351Z,3.95
2023-04-25T01:28:30.744Z,3.80
2023-04-25T01:30:58.617Z,3.78
2023-04-25T01:33:26.102Z,3.40
2023-04-25T01:35:53.420Z,3.50
2023-04-25T01:38:20.828Z,3.80
2023-04-25T01:40:50.630Z,3.60
2023-04-25T01:43:20.279Z,3.65
2023-04-25T01:45:47.528Z,3.55
2023-04-25T01:48:15.586Z,3.25
2023-04-25T01:50:44.972Z,3.70
2023-04-25T01:53:15.031Z,3.72
2023-04-25T01:55:43.971Z,2.95
2023-04-25T01:58:14.557Z,3.20
2023-04-25T02:01:04.418Z,3.45
2023-04-25T02:03:40.649Z,3.05
2023-04-25T02:06:15.595Z,4.25
2023-04-25T02:08:45.317Z,4.18
2023-04-25T02:11:13.769Z,3.95
2023-04-25T02:13:47.306Z,3.38
2023-04-25T02:16:33.103Z,3.83
2023-04-25T02:19:01.682Z,3.35
2023-04-25T02:21:33.439Z,2.92
2023-04-25T02:24:00.891Z,4.22
2023-04-25T02:26:29.634Z,3.30
2023-04-25T02:28:57.872Z,4.03
2023-04-25T02:31:25.171Z,3.30
2023-04-25T02:33:53.348Z,3.65
2023-04-25T02:36:20.484Z,3.88
2023-04-25T02:38:49.264Z,3.28
2023-04-25T02:41:16.330Z,3.58
2023-04-25T02:43:43.120Z,3.25
2023-04-25T02:46:10.096Z,3.30
2023-04-25T02:48:36.941Z,4.15
2023-04-25T02:51:03.937Z,3.80
2023-04-25T02:53:31.012Z,3.65
2023-04-25T02:55:59.446Z,3.22
2023-04-25T02:58:26.449Z,3.63
2023-04-25T03:00:54.753Z,4.45
2023-04-25T03:03:24.656Z,3.95
2023-04-25T03:05:52.973Z,3.95
2023-04-25T03:08:26.293Z,3.30
2023-04-25T03:10:56.792Z,3.47
2023-04-25T03:13:25.322Z,3.90
2023-04-25T03:15:52.515Z,3.80
2023-04-25T03:18:19.614Z,3.97
2023-04-25T03:20:47.672Z,3.20
2023-04-25T03:23:15.555Z,3.92
2023-04-25T03:25:43.168Z,3.65
2023-04-25T03:28:10.213Z,3.00
2023-04-25T03:30:37.315Z,3.47
2023-04-25T03:33:04.505Z,4.10
2023-04-25T03:35:31.610Z,3.60
2023-04-25T03:37:58.499Z,4.00
2023-04-25T03:40:31.485Z,3.45
2023-04-25T03:43:17.212Z,4.40
2023-04-25T03:45:51.603Z,4.18
2023-04-25T03:48:26.704Z,4.25
2023-04-25T03:50:55.760Z,3.47
2023-04-25T03:53:22.926Z,4.05
2023-04-25T03:56:18.891Z,4.15
2023-04-25T03:58:47.511Z,3.13
2023-04-25T04:01:16.661Z,3.63
2023-04-25T04:03:43.659Z,2.95
2023-04-25T04:06:11.866Z,3.22
2023-04-25T04:08:44.242Z,3.28
2023-04-25T04:11:12.086Z,4.00
2023-04-25T04:13:39.260Z,4.35
2023-04-25T04:16:09.860Z,3.75
2023-04-25T04:18:37.491Z,3.50
2023-04-25T04:21:04.868Z,3.25
2023-04-25T04:23:35.197Z,2.80
2023-04-25T04:26:03.005Z,3.10
2023-04-25T04:28:52.869Z,3.45
2023-04-25T04:31:39.404Z,3.50
2023-04-25T04:34:07.027Z,3.90
2023-04-25T04:36:35.167Z,3.50
2023-04-25T04:39:03.532Z,2.70
2023-04-25T04:41:48.339Z,2.83
2023-04-25T04:47:21.376Z,2.90
2023-04-25T04:50:12.287Z,2.42
2023-04-25T04:53:14.841Z,2.97
2023-04-25T04:56:05.172Z,2.75
2023-04-25T04:58:53.607Z,2.45
2023-04-25T05:01:44.229Z,2.97
2023-04-25T05:04:25.863Z,3.30
2023-04-25T05:07:03.420Z,2.60
2023-04-25T05:09:45.431Z,2.85
2023-04-25T05:12:18.051Z,2.70
2023-04-25T05:14:57.720Z,3.08
2023-04-25T05:17:34.262Z,3.17
2023-04-25T05:20:20.431Z,4.82
2023-04-25T05:23:06.071Z,3.50
2023-04-25T05:25:51.504Z,2.88
2023-04-25T05:28:32.288Z,2.83
2023-04-25T05:31:28.596Z,3.63
2023-04-25T05:34:14.892Z,2.22
2023-04-25T05:36:52.736Z,2.88
2023-04-25T05:39:20.117Z,2.70
2023-04-25T05:42:13.456Z,2.88
2023-04-25T05:44:49.418Z,2.25
2023-04-25T05:47:42.552Z,2.55
2023-04-25T05:50:23.279Z,2.08
2023-04-25T05:52:54.438Z,1.73
2023-04-25T05:55:27.822Z,2.45
2023-04-25T05:57:55.034Z,1.95
2023-04-25T06:00:23.836Z,2.63
2023-04-25T06:02:51.517Z,2.30
2023-04-25T06:05:19.455Z,1.92
2023-04-25T06:07:47.864Z,2.20
2023-04-25T06:10:15.180Z,2.20
2023-04-25T06:12:43.130Z,2.00
2023-04-25T06:15:24.221Z,1.98
2023-04-25T06:17:55.063Z,2.22
2023-04-25T06:20:25.224Z,1.73
2023-04-25T06:22:53.816Z,2.78
2023-04-25T06:25:25.338Z,1.92
2023-04-25T06:27:52.336Z,2.13
2023-04-25T06:30:23.553Z,2.47
2023-04-25T06:32:54.136Z,1.70
2023-04-25T06:35:21.955Z,1.70
2023-04-25T06:37:48.982Z,1.95
2023-04-25T06:40:21.854Z,1.77
2023-04-25T06:42:49.880Z,1.88
2023-04-25T06:45:55.603Z,1.45
2023-04-25T06:48:24.266Z,1.52
2023-04-25T06:50:53.257Z,2.17
2023-04-25T06:53:21.002Z,1.73
2023-04-25T06:55:52.996Z,2.08
2023-04-25T06:58:23.269Z,1.52
2023-04-25T07:00:50.220Z,1.98
2023-04-25T07:03:18.641Z,1.50
2023-04-25T07:05:47.224Z,2.17
2023-04-25T07:08:14.366Z,1.88
2023-04-25T07:10:42.134Z,2.05
2023-04-25T07:13:12.347Z,1.80
2023-04-25T07:15:39.561Z,1.88
2023-04-25T07:18:07.474Z,2.35
2023-04-25T07:20:34.767Z,1.52
2023-04-25T07:23:03.604Z,2.25
2023-04-25T07:25:31.618Z,3.15
2023-04-25T07:27:58.773Z,2.30
2023-04-25T07:30:26.752Z,1.98
2023-04-25T07:33:06.138Z,2.22
2023-04-25T07:35:45.273Z,2.00
2023-04-25T07:38:14.670Z,2.63
2023-04-25T07:40:42.129Z,2.38
2023-04-25T07:43:13.634Z,1.95
2023-04-25T07:46:00.095Z,1.80
2023-04-25T07:48:30.202Z,1.50
2023-04-25T07:51:02.437Z,1.67
2023-04-25T07:53:29.493Z,1.55
2023-04-25T07:56:01.990Z,1.67
2023-04-25T07:58:32.418Z,1.60
2023-04-25T08:01:02.189Z,1.67
2023-04-25T08:03:50.316Z,1.80
2023-04-25T08:06:36.535Z,1.50
2023-04-25T08:09:10.427Z,1.73
2023-04-25T08:11:40.217Z,1.60
2023-04-25T08:14:09.051Z,1.40
2023-04-25T08:16:36.886Z,1.40
2023-04-25T08:19:04.106Z,1.15
2023-04-25T08:21:31.720Z,1.90
2023-04-25T08:24:04.954Z,1.33
2023-04-25T08:26:36.108Z,1.55
2023-04-25T08:29:03.113Z,1.88
2023-04-25T08:31:30.271Z,1.50
2023-04-25T08:34:00.294Z,1.70
2023-04-25T08:36:42.366Z,1.17
2023-04-25T08:39:28.067Z,1.27
2023-04-25T08:42:19.058Z,1.30
2023-04-25T08:44:48.569Z,1.50
2023-04-25T08:47:15.702Z,0.73
2023-04-25T08:49:48.254Z,1.38
2023-04-25T08:52:28.813Z,0.75
2023-04-25T08:54:56.453Z,1.20
2023-04-25T08:57:26.728Z,1.00
2023-04-25T09:00:29.914Z,0.73
2023-04-25T09:02:58.029Z,1.08
2023-04-25T09:05:29.869Z,1.00
2023-04-25T09:07:57.607Z,1.13
2023-04-25T09:10:25.947Z,1.33
2023-04-25T09:13:07.920Z,1.10
2023-04-25T09:15:51.362Z,1.10
2023-04-25T09:18:38.865Z,1.70
2023-04-25T09:21:14.366Z,1.38
2023-04-25T09:23:51.544Z,1.73
2023-04-25T09:26:22.704Z,1.67
2023-04-25T09:29:05.285Z,1.73
2023-04-25T09:31:34.775Z,1.38
2023-04-25T09:34:04.857Z,1.45
2023-04-25T09:36:43.186Z,1.88
2023-04-25T09:39:23.478Z,1.92
2023-04-25T09:41:58.923Z,1.80
2023-04-25T09:44:26.478Z,1.20
2023-04-25T09:46:55.659Z,1.52
2023-04-25T09:49:31.766Z,1.48
2023-04-25T09:52:31.443Z,1.15
2023-04-25T09:55:09.752Z,1.33
2023-04-25T09:57:40.843Z,1.23
2023-04-25T10:00:13.763Z,1.00
2023-04-25T10:02:49.883Z,1.15
2023-04-25T10:05:36.813Z,1.40
2023-04-25T10:08:07.579Z,1.00
2023-04-25T10:10:37.487Z,1.10
2023-04-25T10:13:07.204Z,1.60
2023-04-25T10:15:39.712Z,1.35
2023-04-25T10:18:08.169Z,1.45
2023-04-25T10:20:35.470Z,1.63
2023-04-25T10:23:13.014Z,1.67
2023-04-25T10:25:41.372Z,1.35
2023-04-25T10:28:08.337Z,0.93
2023-04-25T10:30:35.580Z,0.90
2023-04-25T10:33:03.085Z,1.30
2023-04-25T10:35:35.047Z,1.25
2023-04-25T10:38:13.736Z,1.40
2023-04-25T10:40:41.172Z,1.30
2023-04-25T10:43:33.288Z,1.33
2023-04-25T10:46:04.637Z,1.42
2023-04-25T10:48:32.308Z,1.45
2023-04-25T10:51:37.136Z,1.00
2023-04-25T10:54:10.991Z,0.90
2023-04-25T10:56:42.842Z,1.10
2023-04-25T10:59:12.516Z,1.17
2023-04-25T11:01:47.143Z,1.15
2023-04-25T11:04:25.808Z,1.55
2023-04-25T11:07:04.484Z,1.05
2023-04-25T11:09:37.790Z,1.40
2023-04-25T11:12:05.425Z,1.10
2023-04-25T11:14:33.004Z,1.15
2023-04-25T11:17:01.307Z,1.13
2023-04-25T11:19:29.849Z,1.30
2023-04-25T11:22:03.385Z,1.80
2023-04-25T11:24:35.930Z,1.05
2023-04-25T11:27:04.989Z,1.15
2023-04-25T11:29:33.654Z,1.25
2023-04-25T11:32:02.267Z,1.15
2023-04-25T11:34:34.281Z,1.30
2023-04-25T11:37:03.553Z,1.27
2023-04-25T11:39:30.571Z,1.30
2023-04-25T11:41:57.707Z,1.10
2023-04-25T11:44:25.080Z,1.23
2023-04-25T11:46:52.504Z,1.20
2023-04-25T11:51:17.456Z,1.23
2023-04-25T11:52:08.435Z,1.67
2023-04-25T11:57:46.079Z,1.35
2023-04-25T12:00:21.766Z,1.25
2023-04-25T12:03:00.970Z,1.17
2023-04-25T12:05:33.160Z,1.40
2023-04-25T12:08:19.345Z,1.30
2023-04-25T12:10:47.206Z,1.25
2023-04-25T12:13:29.143Z,1.60
2023-04-25T12:15:57.238Z,1.25
2023-04-25T12:18:28.881Z,1.40
2023-04-25T12:20:56.486Z,1.17
2023-04-25T12:23:31.746Z,1.10
2023-04-25T12:26:03.866Z,1.42
2023-04-25T12:28:34.360Z,1.05
2023-04-25T12:31:04.191Z,1.35
2023-04-25T12:33:32.699Z,1.45
2023-04-25T12:36:01.120Z,1.55
2023-04-25T12:38:41.973Z,1.10
2023-04-25T12:41:09.737Z,1.13
2023-04-25T12:43:39.817Z,1.10
2023-04-25T12:46:06.755Z,1.38
2023-04-25T12:48:33.914Z,1.10
2023-04-25T12:51:01.410Z,1.33
2023-04-25T12:53:28.431Z,0.90
2023-04-25T12:58:22.803Z,1.00
2023-04-25T13:00:50.365Z,1.55
2023-04-25T13:03:17.916Z,1.20
2023-04-25T13:05:45.328Z,0.90
2023-04-25T13:08:12.824Z,1.05
2023-04-25T13:10:40.770Z,1.63
2023-04-25T13:13:07.725Z,1.20
2023-04-25T13:15:37.804Z,1.20
2023-04-25T13:18:06.733Z,1.38
2023-04-25T13:20:36.036Z,1.40
2023-04-25T13:23:03.384Z,1.17
2023-04-25T13:25:30.564Z,1.08
2023-04-25T13:27:57.540Z,1.15
2023-04-25T13:30:24.745Z,1.60
2023-04-25T13:32:53.072Z,1.48
2023-04-25T13:35:22.274Z,1.35
2023-04-25T13:37:49.338Z,1.38
2023-04-25T13:40:16.256Z,1.50
2023-04-25T13:42:45.255Z,1.10
2023-04-25T13:45:12.216Z,1.20
2023-04-25T13:47:39.346Z,1.02
2023-04-25T13:50:06.922Z,1.20
2023-04-25T13:52:34.261Z,1.15
2023-04-25T13:55:02.128Z,1.02
2023-04-25T13:57:28.981Z,0.95
2023-04-25T13:59:55.845Z,1.55
2023-04-25T14:02:23.121Z,1.33
2023-04-25T14:04:50.326Z,1.35
2023-04-25T14:07:17.554Z,1.55
2023-04-25T14:09:44.672Z,1.38
2023-04-25T14:12:12.372Z,1.38
2023-04-25T14:14:39.852Z,1.80
2023-04-25T14:17:07.588Z,1.30
2023-04-25T14:19:34.410Z,1.45
2023-04-25T14:22:01.465Z,1.20
2023-04-25T14:24:28.562Z,1.30
2023-04-25T14:26:55.554Z,1.05
2023-04-25T14:29:22.955Z,1.30
2023-04-25T14:31:50.465Z,0.90
2023-04-25T14:34:17.385Z,1.48
2023-04-25T14:36:44.474Z,1.20
2023-04-25T14:39:11.364Z,1.25
2023-04-25T14:41:38.649Z,1.23
2023-04-25T14:44:05.646Z,1.33
2023-04-25T14:46:32.904Z,1.35
2023-04-25T14:49:00.090Z,1.10
2023-04-25T14:51:27.567Z,1.27
2023-04-25T14:53:54.943Z,1.40
2023-04-25T14:56:21.977Z,1.08
2023-04-25T14:58:49.020Z,1.20
2023-04-25T15:01:16.240Z,2.40
2023-04-25T15:03:43.434Z,1.55
2023-04-25T15:06:13.874Z,1.52
2023-04-25T15:08:40.977Z,1.40
2023-04-25T15:11:08.376Z,1.55
2023-04-25T15:13:36.300Z,1.33
2023-04-25T15:16:03.166Z,1.15
2023-04-25T15:18:30.196Z,3.63
2023-04-25T15:20:57.791Z,12.75
2023-04-25T15:23:25.575Z,5.68
2023-04-25T15:25:53.665Z,7.40
2023-04-25T15:28:22.243Z,16.67
2023-04-25T15:30:49.792Z,8.02
2023-04-25T15:33:17.043Z,15.85
2023-04-25T15:35:44.135Z,2.13
2023-04-25T15:38:13.855Z,1.15
2023-04-25T15:40:41.839Z,1.23
2023-04-25T15:43:15.752Z,1.75
2023-04-25T15:45:43.157Z,1.23
2023-04-25T15:48:10.362Z,0.82
2023-04-25T15:50:37.335Z,1.40
2023-04-25T15:53:07.159Z,1.65
2023-04-25T15:55:35.060Z,1.35
2023-04-25T15:58:02.742Z,1.00
2023-04-25T16:00:29.999Z,1.25
2023-04-25T16:02:57.938Z,1.50
2023-04-25T16:05:24.859Z,0.95
2023-04-25T16:07:54.009Z,1.30
2023-04-25T16:10:21.697Z,1.38
2023-04-25T16:12:50.104Z,1.20
2023-04-25T16:15:17.937Z,1.15
2023-04-25T16:17:45.112Z,1.35
2023-04-25T16:20:14.354Z,1.08
2023-04-25T16:22:42.815Z,1.27
2023-04-25T16:25:11.060Z,1.40
2023-04-25T16:27:39.380Z,1.10
2023-04-25T16:30:08.655Z,1.40
2023-04-25T16:32:36.098Z,0.98
2023-04-25T16:35:04.277Z,0.90
2023-04-25T16:37:31.209Z,1.70
2023-04-25T16:39:58.278Z,1.20
2023-04-25T16:42:25.511Z,1.30
2023-04-25T16:44:52.295Z,1.23
2023-04-25T16:47:20.530Z,1.50
2023-04-25T16:49:47.826Z,1.42
2023-04-25T16:52:16.374Z,1.30
2023-04-25T16:54:43.472Z,1.30
2023-04-25T16:57:11.404Z,1.60
2023-04-25T16:59:39.480Z,1.30
2023-04-25T17:02:08.838Z,1.27
2023-04-25T17:04:36.023Z,1.02
2023-04-25T17:07:03.003Z,1.30
2023-04-25T17:09:30.035Z,1.40
2023-04-25T17:11:57.268Z,1.20
2023-04-25T17:14:24.192Z,1.58
2023-04-25T17:16:51.112Z,1.45
2023-04-25T17:19:27.421Z,2.60
2023-04-25T17:21:54.378Z,1.75
2023-04-25T17:24:21.999Z,1.30
2023-04-25T17:26:51.879Z,1.50
2023-04-25T17:29:19.321Z,1.70
2023-04-25T17:31:46.793Z,1.45
2023-04-25T17:34:17.865Z,1.40
2023-04-25T17:36:48.399Z,1.52
2023-04-25T17:39:17.523Z,0.90
2023-04-25T17:41:44.731Z,1.10
2023-04-25T17:44:11.995Z,1.40
2023-04-25T17:46:39.144Z,1.30
2023-04-25T17:49:18.284Z,1.00
2023-04-25T17:51:45.247Z,1.10
2023-04-25T17:54:12.336Z,1.27
2023-04-25T17:56:39.845Z,1.45
2023-04-25T17:59:07.154Z,1.52
2023-04-25T18:01:34.143Z,1.70
2023-04-25T18:04:04.128Z,1.17
2023-04-25T18:06:32.915Z,1.40
2023-04-25T18:09:00.114Z,1.35
2023-04-25T18:11:27.095Z,1.42
2023-04-25T18:13:54.191Z,1.50
2023-04-25T18:16:21.425Z,1.65
2023-04-25T18:18:53.474Z,1.30
2023-04-25T18:23:47.963Z,1.65
2023-04-25T18:26:15.980Z,1.38
2023-04-25T18:28:42.888Z,1.90
2023-04-25T18:31:09.872Z,1.75
2023-04-25T18:33:36.827Z,2.47
2023-04-25T18:36:03.766Z,2.38
2023-04-25T18:41:10.721Z,2.33
2023-04-25T18:43:48.048Z,1.85
2023-04-25T18:46:15.074Z,1.67
2023-04-25T18:48:42.755Z,1.88
2023-04-25T18:51:17.145Z,2.35
2023-04-25T18:53:45.984Z,2.80
2023-04-25T18:56:15.566Z,2.47
2023-04-25T18:59:07.798Z,2.22
2023-04-25T19:01:34.684Z,2.25
2023-04-25T19:04:05.919Z,2.38
2023-04-25T19:06:33.745Z,2.47
2023-04-25T19:09:00.699Z,2.60
2023-04-25T19:11:28.016Z,2.13
2023-04-25T19:13:56.847Z,2.60
2023-04-25T19:16:26.523Z,2.10
2023-04-25T19:18:57.281Z,2.22
2023-04-25T19:21:24.261Z,2.60
2023-04-25T19:23:54.245Z,2.53
2023-04-25T19:26:22.211Z,2.22
2023-04-25T19:29:14.236Z,2.30
2023-04-25T19:31:42.887Z,2.47
2023-04-25T19:34:09.959Z,2.00
2023-04-25T19:36:38.815Z,2.67
2023-04-25T19:39:07.383Z,2.78
2023-04-25T19:41:36.576Z,2.90
2023-04-25T19:44:08.584Z,3.28
2023-04-25T19:46:38.460Z,2.78
2023-04-25T19:49:09.167Z,2.90
2023-04-25T19:51:38.733Z,2.58
2023-04-25T19:54:06.112Z,2.58
2023-04-25T19:56:35.322Z,2.10
2023-04-25T19:59:02.301Z,2.20
2023-04-25T20:01:29.521Z,1.77
2023-04-25T20:03:56.861Z,2.10
2023-04-25T20:06:24.528Z,2.10
2023-04-25T20:08:53.763Z,2.53
2023-04-25T20:11:21.964Z,4.10
2023-04-25T20:13:49.035Z,6.95
2023-04-25T20:16:21.055Z,10.57
2023-04-25T20:18:48.850Z,7.40
2023-04-25T20:21:17.125Z,5.68
2023-04-25T20:23:49.876Z,5.55
2023-04-25T20:28:45.366Z,4.47
2023-04-25T20:31:12.653Z,4.72
2023-04-25T20:33:39.885Z,6.90
2023-04-25T20:36:06.933Z,7.63
2023-04-25T20:38:33.897Z,9.13
2023-04-25T20:41:00.984Z,7.50
2023-04-25T20:43:28.038Z,5.03
2023-04-25T20:45:55.199Z,4.28
2023-04-25T20:48:22.466Z,4.40
2023-04-25T20:50:49.733Z,4.72
2023-04-25T20:53:18.163Z,4.85
2023-04-25T20:55:45.164Z,3.92
2023-04-25T20:58:13.118Z,4.22
2023-04-25T21:00:40.119Z,4.32
2023-04-25T21:03:08.045Z,3.72
2023-04-25T21:05:38.365Z,4.22
2023-04-25T21:08:05.809Z,4.13
2023-04-25T21:10:32.750Z,3.80
2023-04-25T21:13:00.338Z,4.03
2023-04-25T21:15:27.662Z,3.63
2023-04-25T21:17:54.627Z,3.25
2023-04-25T21:20:22.160Z,3.38
2023-04-25T21:22:53.789Z,3.53
2023-04-25T21:25:25.479Z,3.22
2023-04-25T21:27:52.924Z,3.20
2023-04-25T21:30:23.503Z,3.35
2023-04-25T21:32:51.608Z,3.50
2023-04-25T21:35:20.954Z,3.85
2023-04-25T21:37:48.403Z,3.55
2023-04-25T21:40:15.751Z,4.47
2023-04-25T21:42:44.653Z,4.03
2023-04-25T21:45:12.248Z,3.75
2023-04-25T21:47:39.414Z,4.03
2023-04-25T21:50:08.070Z,3.50
2023-04-25T21:52:36.285Z,4.00
2023-04-25T21:55:03.452Z,3.63
2023-04-25T21:57:30.380Z,3.42
2023-04-25T21:59:57.391Z,3.65
2023-04-25T22:02:25.188Z,3.08
2023-04-25T22:04:52.598Z,2.88
2023-04-25T22:07:19.560Z,3.35
2023-04-25T22:09:54.498Z,3.33
2023-04-25T22:12:23.295Z,2.83
2023-04-25T22:14:50.592Z,3.92
2023-04-25T22:17:18.089Z,3.55
2023-04-25T22:19:45.472Z,3.53
2023-04-25T22:22:12.635Z,2.53
2023-04-25T22:24:43.066Z,2.90
2023-04-25T22:27:13.078Z,3.20
2023-04-25T22:29:40.226Z,2.60
2023-04-25T22:32:07.429Z,2.80
2023-04-25T22:34:34.309Z,2.70
2023-04-25T22:37:01.366Z,2.70
2023-04-25T22:39:28.365Z,3.20
2023-04-25T22:41:55.244Z,2.95
2023-04-25T22:44:22.413Z,3.30
2023-04-25T22:46:49.324Z,2.80
2023-04-25T22:49:16.114Z,2.47
2023-04-25T22:51:45.937Z,3.17
2023-04-25T22:54:12.821Z,3.17
2023-04-25T22:56:39.614Z,3.03
2023-04-25T22:59:06.563Z,3.63
2023-04-25T23:01:33.481Z,2.78
2023-04-25T23:04:02.590Z,3.15
2023-04-25T23:06:29.740Z,2.75
2023-04-25T23:08:56.605Z,2.75
2023-04-25T23:11:24.520Z,3.15
2023-04-25T23:13:51.852Z,2.70
2023-04-25T23:16:18.762Z,4.10
2023-04-25T23:18:45.872Z,5.25
2023-04-25T23:21:12.801Z,5.03
2023-04-25T23:23:39.993Z,5.00
2023-04-25T23:26:16.220Z,4.97
2023-04-25T23:28:43.104Z,4.63
2023-04-25T23:31:10.825Z,4.82
2023-04-25T23:33:37.797Z,3.85
2023-04-25T23:36:05.408Z,3.55
2023-04-25T23:38:32.777Z,3.80
2023-04-25T23:40:59.685Z,3.35
2023-04-25T23:43:26.592Z,3.03
2023-04-25T23:45:54.328Z,3.58
2023-04-25T23:48:21.224Z,3.30
2023-04-25T23:50:48.049Z,3.20
2023-04-25T23:53:15.235Z,4.15
2023-04-25T23:55:42.290Z,3.83
2023-04-25T23:58:09.167Z,4.50
